Time,TemperatureF,DewpointF,PressureIn,WindDirection,WindDirectionDegrees,WindSpeedMPH,WindSpeedGustMPH,Humidity,HourlyPrecipIn,Conditions,Clouds,dailyrainin,SoftwareType,DateUTC
2013-05-15 00:01:00,46.5,35.0,30.05,West,268,0.0,0.0,64,0.00,,,0.00,Wunderground v.1.15,2013-05-15 04:01:00,
2013-05-15 00:11:00,46.8,35.6,30.05,West,268,0.0,0.0,65,0.00,,,0.00,Wunderground v.1.15,2013-05-15 04:11:00,
2013-05-15 00:16:00,46.8,35.6,30.05,West,268,0.0,0.0,65,0.00,,,0.00,Wunderground v.1.15,2013-05-15 04:16:00,
2013-05-15 00:21:00,46.7,35.6,30.05,West,268,0.0,0.0,65,0.00,,,0.00,Wunderground v.1.15,2013-05-15 04:21:00,
2013-05-15 00:31:00,46.4,35.3,30.05,West,268,0.0,0.0,65,0.00,,,0.00,Wunderground v.1.15,2013-05-15 04:31:00,
2013-05-15 00:41:00,46.2,35.1,30.05,West,268,0.0,0.0,65,0.00,,,0.00,Wunderground v.1.15,2013-05-15 04:41:00,
2013-05-15 00:51:00,46.1,35.4,30.05,West,268,0.0,0.0,66,0.00,,,0.00,Wunderground v.1.15,2013-05-15 04:51:00,
2013-05-15 00:56:00,46.0,35.3,30.05,West,268,0.0,0.0,66,0.00,,,0.00,Wunderground v.1.15,2013-05-15 04:56:00,
2013-05-15 01:01:00,46.0,35.3,30.05,West,268,0.0,0.0,66,0.00,,,0.00,Wunderground v.1.15,2013-05-15 05:01:00,
2013-05-15 01:11:00,45.8,35.5,30.05,West,268,0.0,0.0,67,0.00,,,0.00,Wunderground v.1.15,2013-05-15 05:11:00,
2013-05-15 01:21:00,46.2,35.8,30.05,West,268,0.0,0.0,67,0.00,,,0.00,Wunderground v.1.15,2013-05-15 05:21:00,
2013-05-15 01:31:00,46.5,36.5,30.04,West,268,0.0,0.0,68,0.00,,,0.00,Wunderground v.1.15,2013-05-15 05:31:00,
2013-05-15 01:36:00,46.7,36.7,30.04,West,268,0.0,0.0,68,0.00,,,0.00,Wunderground v.1.15,2013-05-15 05:36:00,
2013-05-15 01:46:00,47.0,37.0,30.04,West,268,0.0,0.0,68,0.00,,,0.00,Wunderground v.1.15,2013-05-15 05:46:00,
2013-05-15 01:51:00,47.3,36.9,30.04,West,268,0.0,0.0,67,0.00,,,0.00,Wunderground v.1.15,2013-05-15 05:51:00,
2013-05-15 02:01:00,47.9,37.8,30.03,West,268,0.0,0.0,68,0.00,,,0.00,Wunderground v.1.15,2013-05-15 06:01:00,
2013-05-15 02:11:00,48.3,38.2,30.03,West,268,0.0,0.0,68,0.00,,,0.00,Wunderground v.1.15,2013-05-15 06:11:00,
2013-05-15 02:21:00,48.5,38.0,30.04,West,268,0.0,0.0,67,0.00,,,0.00,Wunderground v.1.15,2013-05-15 06:21:00,
2013-05-15 02:31:00,48.6,38.1,30.03,West,268,0.0,0.0,67,0.00,,,0.00,Wunderground v.1.15,2013-05-15 06:31:00,
2013-05-15 02:41:00,48.8,37.9,30.03,West,268,0.0,0.0,66,0.00,,,0.00,Wunderground v.1.15,2013-05-15 06:41:00,
2013-05-15 02:51:00,48.9,38.0,30.02,West,268,0.0,0.0,66,0.00,,,0.00,Wunderground v.1.15,2013-05-15 06:51:00,
2013-05-15 03:01:00,49.2,37.9,30.02,West,268,0.0,0.0,65,0.00,,,0.00,Wunderground v.1.15,2013-05-15 07:01:00,
2013-05-15 03:06:00,49.4,38.1,30.02,West,268,0.0,0.0,65,0.00,,,0.00,Wunderground v.1.15,2013-05-15 07:06:00,
2013-05-15 03:16:00,49.4,38.1,30.02,West,268,0.0,0.0,65,0.00,,,0.00,Wunderground v.1.15,2013-05-15 07:16:00,
2013-05-15 03:26:00,49.5,38.2,30.02,West,268,0.0,0.0,65,0.00,,,0.00,Wunderground v.1.15,2013-05-15 07:26:00,
2013-05-15 03:36:00,49.8,38.9,30.02,West,268,0.0,0.0,66,0.00,,,0.00,Wunderground v.1.15,2013-05-15 07:36:00,
2013-05-15 03:46:00,49.9,39.0,30.02,West,268,0.0,0.0,66,0.00,,,0.00,Wunderground v.1.15,2013-05-15 07:46:00,
2013-05-15 03:56:00,49.9,39.4,30.02,West,268,0.0,0.0,67,0.00,,,0.00,Wunderground v.1.15,2013-05-15 07:56:00,
2013-05-15 04:06:00,50.1,39.6,30.01,West,268,0.0,0.0,67,0.00,,,0.00,Wunderground v.1.15,2013-05-15 08:06:00,
2013-05-15 04:11:00,50.1,39.6,30.01,West,268,0.0,0.0,67,0.00,,,0.00,Wunderground v.1.15,2013-05-15 08:11:00,
2013-05-15 04:21:00,50.1,39.9,30.00,West,268,0.0,0.0,68,0.00,,,0.00,Wunderground v.1.15,2013-05-15 08:21:00,
2013-05-15 04:31:00,50.1,39.9,30.01,West,268,0.0,0.0,68,0.00,,,0.00,Wunderground v.1.15,2013-05-15 08:31:00,
2013-05-15 04:41:00,49.6,39.5,30.01,West,268,0.0,0.0,68,0.00,,,0.00,Wunderground v.1.15,2013-05-15 08:41:00,
2013-05-15 04:51:00,49.5,39.7,30.01,West,268,0.0,0.0,69,0.00,,,0.00,Wunderground v.1.15,2013-05-15 08:51:00,
2013-05-15 05:01:00,49.4,40.4,30.01,West,268,0.0,0.0,71,0.00,,,0.00,Wunderground v.1.15,2013-05-15 09:01:00,
2013-05-15 05:06:00,49.4,40.4,30.01,West,268,0.0,0.0,71,0.00,,,0.00,Wunderground v.1.15,2013-05-15 09:06:00,
2013-05-15 05:16:00,49.4,40.7,30.01,West,268,0.0,0.0,72,0.00,,,0.00,Wunderground v.1.15,2013-05-15 09:16:00,
2013-05-15 05:21:00,49.5,40.8,30.01,West,268,0.0,0.0,72,0.00,,,0.00,Wunderground v.1.15,2013-05-15 09:21:00,
2013-05-15 05:31:00,49.8,41.5,30.00,West,268,0.0,0.0,73,0.00,,,0.00,Wunderground v.1.15,2013-05-15 09:31:00,
2013-05-15 05:41:00,49.9,41.6,30.00,West,268,0.0,0.0,73,0.00,,,0.00,Wunderground v.1.15,2013-05-15 09:41:00,
2013-05-15 05:51:00,50.2,42.2,30.00,South,169,0.0,0.0,74,0.00,,,0.00,Wunderground v.1.15,2013-05-15 09:51:00,
2013-05-15 06:01:00,50.4,42.8,30.00,South,169,0.0,0.0,75,0.00,,,0.00,Wunderground v.1.15,2013-05-15 10:01:00,
2013-05-15 06:11:00,50.5,42.9,30.00,South,169,0.0,0.0,75,0.00,,,0.00,Wunderground v.1.15,2013-05-15 10:11:00,
2013-05-15 06:16:00,50.7,43.1,30.00,South,169,0.0,0.0,75,0.00,,,0.00,Wunderground v.1.15,2013-05-15 10:16:00,
2013-05-15 06:26:00,50.8,43.5,30.00,South,169,0.0,0.0,76,0.00,,,0.00,Wunderground v.1.15,2013-05-15 10:26:00,
2013-05-15 06:31:00,51.0,43.7,29.99,South,169,0.0,0.0,76,0.00,,,0.00,Wunderground v.1.15,2013-05-15 10:31:00,
2013-05-15 06:41:00,51.1,43.8,29.99,South,169,0.0,0.0,76,0.00,,,0.00,Wunderground v.1.15,2013-05-15 10:41:00,
2013-05-15 06:46:00,51.4,44.1,29.99,SSE,161,0.0,0.0,76,0.00,,,0.00,Wunderground v.1.15,2013-05-15 10:46:00,
2013-05-15 06:56:00,51.7,44.4,29.99,SSE,161,0.0,0.0,76,0.00,,,0.00,Wunderground v.1.15,2013-05-15 10:56:00,
2013-05-15 07:06:00,52.0,44.7,29.98,SSE,163,0.0,0.0,76,0.00,,,0.00,Wunderground v.1.15,2013-05-15 11:06:00,
2013-05-15 07:11:00,52.0,44.7,29.98,SSE,163,0.0,0.0,76,0.00,,,0.00,Wunderground v.1.15,2013-05-15 11:11:00,
2013-05-15 07:21:00,52.5,44.8,29.98,SSE,163,0.0,0.0,75,0.00,,,0.00,Wunderground v.1.15,2013-05-15 11:21:00,
2013-05-15 07:31:00,53.1,45.0,29.98,South,184,1.0,1.0,74,0.00,,,0.00,Wunderground v.1.15,2013-05-15 11:31:00,
2013-05-15 07:41:00,53.5,45.1,29.98,ENE,67,1.0,2.0,73,0.00,,,0.00,Wunderground v.1.15,2013-05-15 11:41:00,
2013-05-15 07:46:00,53.6,44.8,29.96,SE,128,1.0,2.0,72,0.00,,,0.00,Wunderground v.1.15,2013-05-15 11:46:00,
2013-05-15 07:56:00,53.9,44.7,29.96,SE,136,0.0,5.0,71,0.00,,,0.00,Wunderground v.1.15,2013-05-15 11:56:00,
2013-05-15 08:06:00,54.4,44.8,29.96,South,172,2.0,5.0,70,0.00,,,0.00,Wunderground v.1.15,2013-05-15 12:06:00,
2013-05-15 08:11:00,54.8,44.8,29.96,South,172,1.0,1.0,69,0.00,,,0.00,Wunderground v.1.15,2013-05-15 12:11:00,
2013-05-15 08:26:00,55.7,45.3,29.96,SSE,154,1.0,1.0,68,0.00,,,0.00,Wunderground v.1.15,2013-05-15 12:26:00,
2013-05-15 08:36:00,56.3,45.5,29.96,SW,217,1.0,2.0,67,0.00,,,0.00,Wunderground v.1.15,2013-05-15 12:36:00,
2013-05-15 08:56:00,57.3,45.2,29.96,SSE,162,3.0,3.0,64,0.00,,,0.00,Wunderground v.1.15,2013-05-15 12:56:00,
2013-05-15 09:06:00,58.3,45.8,29.93,SW,236,2.0,6.0,63,0.00,,,0.00,Wunderground v.1.15,2013-05-15 13:06:00,
2013-05-15 09:16:00,59.2,45.8,29.94,SSE,161,3.0,5.0,61,0.00,,,0.00,Wunderground v.1.15,2013-05-15 13:16:00,
2013-05-15 09:26:00,59.9,46.0,29.94,SW,235,2.0,6.0,60,0.00,,,0.00,Wunderground v.1.15,2013-05-15 13:26:00,
2013-05-15 09:31:00,60.4,46.0,29.93,SW,234,3.0,3.0,59,0.00,,,0.00,Wunderground v.1.15,2013-05-15 13:31:00,
2013-05-15 09:46:00,61.8,46.9,29.93,SE,144,2.0,6.0,58,0.00,,,0.00,Wunderground v.1.15,2013-05-15 13:46:00,
2013-05-15 09:56:00,62.0,46.6,29.93,SW,222,3.0,4.0,57,0.00,,,0.00,Wunderground v.1.15,2013-05-15 13:56:00,
2013-05-15 10:11:00,62.7,47.2,29.91,South,169,4.0,4.0,57,0.00,,,0.00,Wunderground v.1.15,2013-05-15 14:11:00,
2013-05-15 10:16:00,63.1,47.6,29.92,SW,225,3.0,4.0,57,0.00,,,0.00,Wunderground v.1.15,2013-05-15 14:16:00,
2013-05-15 10:26:00,63.5,48.0,29.92,South,171,2.0,2.0,57,0.00,,,0.00,Wunderground v.1.15,2013-05-15 14:26:00,
2013-05-15 10:36:00,63.9,48.4,29.91,WSW,240,2.0,2.0,57,0.00,,,0.00,Wunderground v.1.15,2013-05-15 14:36:00,
2013-05-15 10:56:00,65.2,48.6,29.91,West,263,4.0,7.0,55,0.00,,,0.00,Wunderground v.1.15,2013-05-15 14:56:00,
2013-05-15 11:06:00,65.8,49.2,29.91,SSE,168,2.0,5.0,55,0.00,,,0.00,Wunderground v.1.15,2013-05-15 15:06:00,
2013-05-15 11:11:00,65.8,48.7,29.91,SSW,196,2.0,4.0,54,0.00,,,0.00,Wunderground v.1.15,2013-05-15 15:11:00,
2013-05-15 11:21:00,66.1,49.0,29.90,SW,223,2.0,3.0,54,0.00,,,0.00,Wunderground v.1.15,2013-05-15 15:21:00,
2013-05-15 11:31:00,66.4,49.7,29.88,SSE,165,2.0,2.0,55,0.00,,,0.00,Wunderground v.1.15,2013-05-15 15:31:00,
2013-05-15 11:41:00,66.9,50.2,29.88,SSE,148,1.0,5.0,55,0.00,,,0.00,Wunderground v.1.15,2013-05-15 15:41:00,
2013-05-15 11:51:00,67.9,50.1,29.86,SW,220,3.0,3.0,53,0.00,,,0.00,Wunderground v.1.15,2013-05-15 15:51:00,
2013-05-15 12:01:00,68.4,50.6,29.85,South,170,2.0,2.0,53,0.00,,,0.00,Wunderground v.1.15,2013-05-15 16:01:00,
2013-05-15 12:11:00,68.3,50.0,29.85,East,96,2.0,2.0,52,0.00,,,0.00,Wunderground v.1.15,2013-05-15 16:11:00,
2013-05-15 12:26:00,69.9,50.9,29.85,SSW,213,2.0,2.0,51,0.00,,,0.00,Wunderground v.1.15,2013-05-15 16:26:00,
2013-05-15 12:31:00,70.6,51.1,29.85,SE,131,3.0,5.0,50,0.00,,,0.00,Wunderground v.1.15,2013-05-15 16:31:00,
2013-05-15 12:46:00,72.1,51.3,29.85,SW,214,4.0,8.0,48,0.00,,,0.00,Wunderground v.1.15,2013-05-15 16:46:00,
2013-05-15 12:56:00,73.0,52.7,29.85,WSW,252,3.0,4.0,49,0.00,,,0.00,Wunderground v.1.15,2013-05-15 16:56:00,
2013-05-15 13:06:00,73.5,52.0,29.83,SSE,161,4.0,6.0,47,0.00,,,0.00,Wunderground v.1.15,2013-05-15 17:06:00,
2013-05-15 13:11:00,73.5,51.4,29.83,SSW,213,4.0,5.0,46,0.00,,,0.00,Wunderground v.1.15,2013-05-15 17:11:00,
2013-05-15 13:21:00,73.7,50.4,29.84,West,264,4.0,5.0,44,0.00,,,0.00,Wunderground v.1.15,2013-05-15 17:21:00,
2013-05-15 13:31:00,73.2,51.2,29.84,West,269,4.0,4.0,46,0.00,,,0.00,Wunderground v.1.15,2013-05-15 17:31:00,
2013-05-15 13:41:00,73.0,51.0,29.84,SSW,207,2.0,2.0,46,0.00,,,0.00,Wunderground v.1.15,2013-05-15 17:41:00,
2013-05-15 13:51:00,72.5,51.1,29.84,South,171,2.0,5.0,47,0.00,,,0.00,Wunderground v.1.15,2013-05-15 17:51:00,
2013-05-15 14:01:00,71.8,52.2,29.82,SSW,207,1.0,2.0,50,0.00,,,0.00,Wunderground v.1.15,2013-05-15 18:01:00,
2013-05-15 14:11:00,71.3,51.7,29.82,SW,219,1.0,1.0,50,0.00,,,0.00,Wunderground v.1.15,2013-05-15 18:11:00,
2013-05-15 14:26:00,71.6,52.5,29.83,SW,223,2.0,2.0,51,0.00,,,0.00,Wunderground v.1.15,2013-05-15 18:26:00,
2013-05-15 14:36:00,71.8,51.6,29.82,South,190,3.0,6.0,49,0.00,,,0.00,Wunderground v.1.15,2013-05-15 18:36:00,
2013-05-15 14:51:00,72.7,52.4,29.79,South,183,5.0,5.0,49,0.00,,,0.00,Wunderground v.1.15,2013-05-15 18:51:00,
2013-05-15 15:01:00,73.9,53.0,29.75,NW,323,3.0,8.0,48,0.00,,,0.00,Wunderground v.1.15,2013-05-15 19:01:00,
2013-05-15 15:11:00,73.5,52.6,29.75,WSW,250,5.0,5.0,48,0.00,,,0.00,Wunderground v.1.15,2013-05-15 19:11:00,
2013-05-15 15:16:00,73.3,53.0,29.75,SSW,192,5.0,5.0,49,0.00,,,0.00,Wunderground v.1.15,2013-05-15 19:16:00,
2013-05-15 15:26:00,73.9,54.1,29.75,SW,217,4.0,5.0,50,0.00,,,0.00,Wunderground v.1.15,2013-05-15 19:26:00,
2013-05-15 15:36:00,75.4,54.9,29.73,SW,217,3.0,3.0,49,0.00,,,0.00,Wunderground v.1.15,2013-05-15 19:36:00,
2013-05-15 15:46:00,76.1,54.4,29.71,South,180,4.0,5.0,47,0.00,,,0.00,Wunderground v.1.15,2013-05-15 19:46:00,
2013-05-15 15:56:00,76.1,55.0,29.71,West,278,4.0,4.0,48,0.00,,,0.00,Wunderground v.1.15,2013-05-15 19:56:00,
2013-05-15 16:01:00,76.1,55.0,29.70,SSW,196,3.0,3.0,48,0.00,,,0.00,Wunderground v.1.15,2013-05-15 20:01:00,
2013-05-15 16:11:00,76.1,55.0,29.70,SW,227,5.0,9.0,48,0.00,,,0.00,Wunderground v.1.15,2013-05-15 20:11:00,
2013-05-15 16:16:00,76.0,55.5,29.71,SW,232,5.0,9.0,49,0.00,,,0.00,Wunderground v.1.15,2013-05-15 20:16:00,
2013-05-15 16:26:00,76.1,55.5,29.71,SSW,207,4.0,6.0,49,0.00,,,0.00,Wunderground v.1.15,2013-05-15 20:26:00,
2013-05-15 16:31:00,76.3,55.7,29.71,South,186,4.0,4.0,49,0.00,,,0.00,Wunderground v.1.15,2013-05-15 20:31:00,
2013-05-15 16:41:00,76.3,55.2,29.71,NW,312,4.0,5.0,48,0.00,,,0.00,Wunderground v.1.15,2013-05-15 20:41:00,
2013-05-15 16:51:00,76.5,55.3,29.70,WNW,292,4.0,4.0,48,0.00,,,0.00,Wunderground v.1.15,2013-05-15 20:51:00,
2013-05-15 17:01:00,76.7,55.5,29.70,WSW,257,4.0,4.0,48,0.00,,,0.00,Wunderground v.1.15,2013-05-15 21:01:00,
2013-05-15 17:11:00,76.8,55.0,29.70,SW,221,4.0,8.0,47,0.00,,,0.00,Wunderground v.1.15,2013-05-15 21:11:00,
2013-05-15 17:16:00,76.5,55.3,29.70,SSW,198,4.0,8.0,48,0.00,,,0.00,Wunderground v.1.15,2013-05-15 21:16:00,
2013-05-15 17:26:00,76.3,55.7,29.70,South,187,4.0,6.0,49,0.00,,,0.00,Wunderground v.1.15,2013-05-15 21:26:00,
2013-05-15 17:31:00,75.8,55.3,29.68,WNW,302,4.0,5.0,49,0.00,,,0.00,Wunderground v.1.15,2013-05-15 21:31:00,
2013-05-15 17:41:00,74.9,56.1,29.68,SW,215,4.0,4.0,52,0.00,,,0.00,Wunderground v.1.15,2013-05-15 21:41:00,
2013-05-15 17:51:00,74.2,56.0,29.68,NE,51,4.0,4.0,53,0.00,,,0.00,Wunderground v.1.15,2013-05-15 21:51:00,
2013-05-15 17:56:00,73.9,55.7,29.68,WSW,250,5.0,5.0,53,0.00,,,0.00,Wunderground v.1.15,2013-05-15 21:56:00,
2013-05-15 18:06:00,73.3,56.2,29.68,SSW,207,4.0,8.0,55,0.00,,,0.00,Wunderground v.1.15,2013-05-15 22:06:00,
2013-05-15 18:21:00,73.2,56.6,29.69,South,189,3.0,3.0,56,0.00,,,0.00,Wunderground v.1.15,2013-05-15 22:21:00,
2013-05-15 18:26:00,73.2,57.1,29.69,WSW,243,3.0,3.0,57,0.00,,,0.00,Wunderground v.1.15,2013-05-15 22:26:00,
2013-05-15 18:36:00,73.2,57.1,29.68,South,191,4.0,4.0,57,0.00,,,0.00,Wunderground v.1.15,2013-05-15 22:36:00,
2013-05-15 18:46:00,72.8,56.7,29.68,WNW,296,2.0,3.0,57,0.00,,,0.00,Wunderground v.1.15,2013-05-15 22:46:00,
2013-05-15 18:56:00,72.8,56.7,29.68,SW,221,1.0,4.0,57,0.00,,,0.00,Wunderground v.1.15,2013-05-15 22:56:00,
2013-05-15 19:06:00,72.7,56.6,29.68,WSW,254,2.0,7.0,57,0.00,,,0.00,Wunderground v.1.15,2013-05-15 23:06:00,
2013-05-15 19:11:00,72.7,56.6,29.68,West,271,2.0,2.0,57,0.00,,,0.00,Wunderground v.1.15,2013-05-15 23:11:00,
2013-05-15 19:21:00,72.5,56.9,29.68,SW,233,2.0,2.0,58,0.00,,,0.00,Wunderground v.1.15,2013-05-15 23:21:00,
2013-05-15 19:36:00,72.3,56.7,29.68,SSW,212,2.0,2.0,58,0.00,,,0.00,Wunderground v.1.15,2013-05-15 23:36:00,
2013-05-15 19:41:00,72.1,56.5,29.68,SSW,196,3.0,4.0,58,0.00,,,0.00,Wunderground v.1.15,2013-05-15 23:41:00,
2013-05-15 19:51:00,72.0,56.9,29.68,SW,219,1.0,1.0,59,0.00,,,0.00,Wunderground v.1.15,2013-05-15 23:51:00,
2013-05-15 20:01:00,71.5,56.4,29.68,SW,219,0.0,0.0,59,0.00,,,0.00,Wunderground v.1.15,2013-05-16 00:01:00,
2013-05-15 20:11:00,71.1,56.0,29.68,SW,219,0.0,0.0,59,0.00,,,0.00,Wunderground v.1.15,2013-05-16 00:11:00,
2013-05-15 20:16:00,70.9,56.3,29.68,SW,219,0.0,0.0,60,0.00,,,0.00,Wunderground v.1.15,2013-05-16 00:16:00,
2013-05-15 20:31:00,70.3,56.2,29.68,SW,219,0.0,0.0,61,0.00,,,0.00,Wunderground v.1.15,2013-05-16 00:31:00,
2013-05-15 20:41:00,69.8,56.2,29.68,SW,219,0.0,0.0,62,0.00,,,0.00,Wunderground v.1.15,2013-05-16 00:41:00,
2013-05-15 20:51:00,69.3,56.2,29.68,SW,219,0.0,0.0,63,0.00,,,0.00,Wunderground v.1.15,2013-05-16 00:51:00,
2013-05-15 21:01:00,68.6,55.9,29.68,SW,219,0.0,0.0,64,0.00,,,0.00,Wunderground v.1.15,2013-05-16 01:01:00,
2013-05-15 21:11:00,68.1,56.3,29.68,SW,219,0.0,0.0,66,0.00,,,0.00,Wunderground v.1.15,2013-05-16 01:11:00,
2013-05-15 21:21:00,67.4,56.1,29.68,SW,219,0.0,0.0,67,0.00,,,0.00,Wunderground v.1.15,2013-05-16 01:21:00,
2013-05-15 21:31:00,66.6,56.1,29.68,SW,219,0.0,0.0,69,0.00,,,0.00,Wunderground v.1.15,2013-05-16 01:31:00,
2013-05-15 21:36:00,66.3,55.8,29.68,SW,219,0.0,0.0,69,0.00,,,0.00,Wunderground v.1.15,2013-05-16 01:36:00,
2013-05-15 21:46:00,65.8,55.7,29.68,SW,219,0.0,0.0,70,0.00,,,0.00,Wunderground v.1.15,2013-05-16 01:46:00,
2013-05-15 21:56:00,65.3,55.7,29.68,SW,219,0.0,0.0,71,0.00,,,0.00,Wunderground v.1.15,2013-05-16 01:56:00,
2013-05-15 22:16:00,64.5,56.0,29.69,SW,219,0.0,0.0,74,0.00,,,0.00,Wunderground v.1.15,2013-05-16 02:16:00,
2013-05-15 22:26:00,64.0,55.9,29.69,SW,219,0.0,0.0,75,0.00,,,0.00,Wunderground v.1.15,2013-05-16 02:26:00,
2013-05-15 22:36:00,63.9,56.2,29.68,SW,219,0.0,0.0,76,0.00,,,0.00,Wunderground v.1.15,2013-05-16 02:36:00,
2013-05-15 22:46:00,63.4,55.7,29.68,SW,219,0.0,0.0,76,0.00,,,0.00,Wunderground v.1.15,2013-05-16 02:46:00,
2013-05-15 22:56:00,63.1,55.8,29.68,SW,219,0.0,0.0,77,0.00,,,0.00,Wunderground v.1.15,2013-05-16 02:56:00,
2013-05-15 23:06:00,62.7,55.7,29.68,SW,219,0.0,0.0,78,0.00,,,0.00,Wunderground v.1.15,2013-05-16 03:06:00,
2013-05-15 23:16:00,62.4,55.8,29.68,SW,219,0.0,0.0,79,0.00,,,0.00,Wunderground v.1.15,2013-05-16 03:16:00,
2013-05-15 23:26:00,62.1,55.9,29.68,SW,219,0.0,0.0,80,0.00,,,0.00,Wunderground v.1.15,2013-05-16 03:26:00,
2013-05-15 23:36:00,61.8,55.6,29.68,SW,219,0.0,0.0,80,0.00,,,0.00,Wunderground v.1.15,2013-05-16 03:36:00,
2013-05-15 23:46:00,61.5,55.3,29.68,SW,219,0.0,0.0,80,0.00,,,0.00,Wunderground v.1.15,2013-05-16 03:46:00,
2013-05-15 23:56:00,61.5,55.6,29.68,North,360,0.0,2.0,81,0.00,,,0.00,Wunderground v.1.15,2013-05-16 03:56:00,